Time;durP1;ratioP1;P1;durP2;ratioP2;P2;SDS_P1;SDS_P2;PMS_P1;PMS_P2;Temp;Humidity;BMP_temperature;BMP_pressure;BME280_temperature;BME280_humidity;BME280_pressure;Samples;Min_cycle;Max_cycle;Signal;HPM_P1;HPM_P2
2023/11/16 00:02:02;;;;;;;6.20;1.42;;;8.60;71.80;;;;;;4995074;28;20400;-77
2023/11/16 00:04:28;;;;;;;9.30;1.70;;;8.70;71.80;;;;;;4995168;28;20113;-76
2023/11/16 00:06:54;;;;;;;5.70;1.33;;;8.60;71.60;;;;;;4994999;28;20510;-77
2023/11/16 00:09:20;;;;;;;7.38;1.85;;;8.70;71.30;;;;;;4994699;28;20034;-77
2023/11/16 00:11:46;;;;;;;9.25;1.73;;;8.70;71.50;;;;;;4994336;28;20451;-77
2023/11/16 00:14:11;;;;;;;9.68;1.27;;;8.70;71.50;;;;;;4993353;28;20462;-76
2023/11/16 00:16:37;;;;;;;6.57;1.40;;;8.60;71.50;;;;;;4994821;28;20042;-77
2023/11/16 00:19:05;;;;;;;5.90;1.52;;;8.60;71.50;;;;;;4995221;28;20384;-77
2023/11/16 00:21:31;;;;;;;6.85;1.70;;;8.50;71.60;;;;;;4994756;28;20036;-77
2023/11/16 00:23:57;;;;;;;9.45;1.63;;;8.50;71.50;;;;;;4994672;28;20032;-77
2023/11/16 00:26:23;;;;;;;12.07;1.77;;;8.60;71.70;;;;;;4994553;28;20030;-77
2023/11/16 00:28:54;;;;;;;3.28;1.10;;;8.60;71.60;;;;;;4994716;28;20387;-77
2023/11/16 00:31:20;;;;;;;10.75;2.03;;;8.70;71.10;;;;;;4994485;28;20121;-78
2023/11/16 00:33:46;;;;;;;5.65;1.67;;;8.80;70.80;;;;;;4994515;28;20039;-77
2023/11/16 00:36:12;;;;;;;8.27;1.63;;;8.70;70.40;;;;;;4994504;28;20022;-77
2023/11/16 00:38:38;;;;;;;12.02;1.70;;;8.70;70.40;;;;;;4994376;28;20029;-77
2023/11/16 00:41:08;;;;;;;4.90;1.10;;;8.70;70.80;;;;;;4993043;28;20030;-76
2023/11/16 00:43:34;;;;;;;8.43;1.60;;;8.70;71.10;;;;;;4994290;28;20504;-76
2023/11/16 00:46:04;;;;;;;4.53;1.30;;;8.60;71.20;;;;;;4994281;28;20027;-77
2023/11/16 00:48:33;;;;;;;9.32;1.92;;;8.70;71.40;;;;;;4994280;28;20049;-77
2023/11/16 00:50:58;;;;;;;7.32;1.73;;;8.70;71.20;;;;;;4994105;28;20078;-77
2023/11/16 00:53:25;;;;;;;6.88;1.17;;;8.60;70.80;;;;;;4993112;28;20045;-77
2023/11/16 00:55:51;;;;;;;10.15;1.45;;;8.60;71.10;;;;;;4994056;28;20111;-77
2023/11/16 00:58:19;;;;;;;9.63;1.50;;;8.60;71.10;;;;;;4994116;28;20015;-77
2023/11/16 01:00:49;;;;;;;5.47;1.13;;;8.60;71.10;;;;;;4993979;28;20040;-76
2023/11/16 01:03:14;;;;;;;8.07;1.40;;;8.60;71.00;;;;;;4994108;28;20022;-77
2023/11/16 01:05:40;;;;;;;10.10;1.73;;;8.70;70.90;;;;;;4993846;28;20391;-76
2023/11/16 01:08:09;;;;;;;5.68;1.27;;;8.70;70.70;;;;;;4993794;28;20577;-77
2023/11/16 01:10:37;;;;;;;10.93;1.63;;;8.70;71.20;;;;;;4993975;28;20399;-77
2023/11/16 01:13:07;;;;;;;8.38;1.33;;;8.70;70.90;;;;;;4993763;28;20439;-76
2023/11/16 01:15:38;;;;;;;6.30;1.13;;;8.70;70.70;;;;;;4993807;28;20026;-77
2023/11/16 01:18:12;;;;;;;4.85;1.48;;;8.70;70.60;;;;;;4993815;28;20427;-76
2023/11/16 01:20:42;;;;;;;4.82;1.23;;;8.70;70.40;;;;;;4993745;28;20078;-76
2023/11/16 01:23:11;;;;;;;9.48;1.27;;;8.60;70.50;;;;;;4993783;28;20027;-76
2023/11/16 01:25:41;;;;;;;4.47;0.90;;;8.70;70.70;;;;;;4993542;28;20054;-76
2023/11/16 01:28:10;;;;;;;6.10;1.30;;;8.70;70.80;;;;;;4992327;28;20428;-76
2023/11/16 01:30:36;;;;;;;7.07;1.25;;;8.60;70.60;;;;;;4993500;28;20031;-76
2023/11/16 01:33:05;;;;;;;6.38;1.52;;;8.60;70.50;;;;;;4993680;28;20026;-77
2023/11/16 01:35:31;;;;;;;5.70;1.23;;;8.70;70.40;;;;;;4993518;28;20506;-75
2023/11/16 01:37:57;;;;;;;4.88;1.13;;;8.60;70.80;;;;;;4993613;28;20022;-75
2023/11/16 01:40:26;;;;;;;6.30;1.23;;;8.60;70.70;;;;;;4993650;28;20101;-76
2023/11/16 01:42:52;;;;;;;5.28;1.30;;;8.50;71.10;;;;;;4993618;28;20041;-77
2023/11/16 01:45:29;;;;;;;4.40;1.08;;;8.50;71.30;;;;;;4993715;28;20018;-77
2023/11/16 01:48:00;;;;;;;4.10;1.00;;;8.50;71.40;;;;;;4993596;28;20479;-76
2023/11/16 01:50:28;;;;;;;5.25;1.20;;;8.50;71.20;;;;;;4993323;28;20495;-77
2023/11/16 01:53:03;;;;;;;5.50;1.40;;;8.50;71.20;;;;;;4993386;28;20026;-76
2023/11/16 01:55:33;;;;;;;7.05;1.00;;;8.40;71.40;;;;;;4993536;28;20018;-76
2023/11/16 01:58:04;;;;;;;7.32;1.40;;;8.50;71.30;;;;;;4993450;28;20030;-74
2023/11/16 02:00:33;;;;;;;3.67;1.10;;;8.50;71.20;;;;;;4993342;28;20109;-74
2023/11/16 02:03:05;;;;;;;4.00;1.20;;;8.50;71.00;;;;;;4993301;28;20081;-75
2023/11/16 02:05:35;;;;;;;7.10;1.35;;;8.50;71.30;;;;;;4993328;28;20471;-75
2023/11/16 02:08:04;;;;;;;7.22;1.02;;;8.50;71.30;;;;;;4992082;28;20026;-75
2023/11/16 02:10:30;;;;;;;6.95;1.20;;;8.50;71.50;;;;;;4993169;28;20114;-75
2023/11/16 02:12:59;;;;;;;4.45;1.30;;;8.40;71.70;;;;;;4993304;28;20501;-73
2023/11/16 02:15:27;;;;;;;4.20;1.10;;;8.40;71.90;;;;;;4993031;28;20481;-74
2023/11/16 02:17:53;;;;;;;4.50;1.20;;;8.40;72.40;;;;;;4993267;28;20030;-73
2023/11/16 02:20:21;;;;;;;3.95;1.00;;;8.40;71.60;;;;;;4993204;28;20447;-74
2023/11/16 02:22:51;;;;;;;5.03;0.95;;;8.40;71.20;;;;;;4993228;28;20018;-74
2023/11/16 02:25:17;;;;;;;7.30;1.38;;;8.40;70.80;;;;;;4993150;28;20022;-74
2023/11/16 02:27:43;;;;;;;3.17;0.80;;;8.40;71.00;;;;;;4992462;28;20430;-74
2023/11/16 02:30:09;;;;;;;5.00;1.55;;;8.30;71.20;;;;;;4993060;28;20027;-74
2023/11/16 02:32:35;;;;;;;6.95;1.05;;;8.30;71.20;;;;;;4993108;28;20549;-74
2023/11/16 02:35:02;;;;;;;4.95;1.25;;;8.30;71.60;;;;;;4996477;28;20023;-74
2023/11/16 02:37:28;;;;;;;7.57;1.40;;;8.30;72.00;;;;;;4996608;28;20022;-75
2023/11/16 02:39:53;;;;;;;8.32;1.35;;;8.30;72.30;;;;;;4996484;28;20499;-75
2023/11/16 02:42:19;;;;;;;6.43;1.35;;;8.40;72.50;;;;;;4996585;28;20109;-75
2023/11/16 02:44:48;;;;;;;3.58;1.10;;;8.30;72.70;;;;;;4995222;28;20033;-75
2023/11/16 02:47:14;;;;;;;5.70;1.30;;;8.30;72.80;;;;;;4996519;28;20042;-75
2023/11/16 02:49:42;;;;;;;4.30;1.50;;;8.40;72.80;;;;;;4996108;28;20475;-75
2023/11/16 02:52:08;;;;;;;8.73;1.42;;;8.40;72.60;;;;;;4996282;28;20030;-74
2023/11/16 02:54:33;;;;;;;5.68;1.25;;;8.40;72.80;;;;;;4996278;28;20024;-74
2023/11/16 02:57:00;;;;;;;5.63;1.42;;;8.40;72.90;;;;;;4996179;28;20388;-73
2023/11/16 02:59:25;;;;;;;4.35;1.05;;;8.40;73.00;;;;;;4996327;28;20458;-74
2023/11/16 03:01:51;;;;;;;6.45;1.25;;;8.40;73.30;;;;;;4996196;28;20050;-74
2023/11/16 03:04:16;;;;;;;3.90;1.27;;;8.40;73.50;;;;;;4996296;28;20022;-74
2023/11/16 03:06:42;;;;;;;2.80;0.95;;;8.40;73.50;;;;;;4996164;28;20435;-74
2023/11/16 03:09:09;;;;;;;4.40;0.90;;;8.40;73.70;;;;;;4996148;28;20037;-74
2023/11/16 03:11:40;;;;;;;3.50;1.08;;;8.30;73.80;;;;;;4996058;28;20026;-74
2023/11/16 03:14:08;;;;;;;8.55;1.48;;;8.30;73.90;;;;;;4995959;28;20555;-74
2023/11/16 03:16:39;;;;;;;4.15;0.93;;;8.30;74.20;;;;;;4996103;28;20073;-74
2023/11/16 03:19:05;;;;;;;2.75;1.10;;;8.30;74.50;;;;;;4994729;28;20019;-74
2023/11/16 03:21:31;;;;;;;8.00;1.17;;;8.20;74.70;;;;;;4995965;28;20019;-74
2023/11/16 03:23:56;;;;;;;5.43;1.27;;;8.20;75.00;;;;;;4995891;28;20026;-74
2023/11/16 03:26:22;;;;;;;4.07;1.10;;;8.10;75.20;;;;;;4976961;28;20034;-74
2023/11/16 03:28:49;;;;;;;6.07;1.75;;;8.00;75.20;;;;;;4976386;28;20031;-75
2023/11/16 03:31:14;;;;;;;2.70;1.00;;;8.10;75.40;;;;;;4977622;28;20126;-75
2023/11/16 03:33:40;;;;;;;4.75;1.20;;;8.10;75.40;;;;;;4980427;28;20066;-74
2023/11/16 03:36:06;;;;;;;4.72;1.02;;;8.10;75.30;;;;;;4976069;28;20086;-74
2023/11/16 03:38:34;;;;;;;12.95;1.80;;;8.10;75.40;;;;;;4976138;28;20077;-74
2023/11/16 03:41:00;;;;;;;3.95;1.27;;;8.20;75.40;;;;;;4975978;28;20019;-74
2023/11/16 03:43:26;;;;;;;7.10;1.13;;;8.20;75.30;;;;;;4975896;28;20023;-74
2023/11/16 03:45:52;;;;;;;4.25;1.20;;;8.20;75.40;;;;;;4975810;28;20023;-74
2023/11/16 03:48:18;;;;;;;3.78;1.60;;;8.20;75.60;;;;;;4975716;28;20062;-74
2023/11/16 03:50:44;;;;;;;3.90;1.38;;;8.20;75.40;;;;;;4975436;28;20047;-74
2023/11/16 03:53:10;;;;;;;6.78;1.40;;;8.10;75.10;;;;;;4975706;28;20541;-75
2023/11/16 03:55:36;;;;;;;8.68;1.40;;;8.10;74.40;;;;;;4975630;28;20085;-74
2023/11/16 03:58:01;;;;;;;5.85;1.40;;;8.20;74.30;;;;;;4975712;28;20027;-74
2023/11/16 04:00:27;;;;;;;9.38;1.30;;;8.10;73.90;;;;;;4975592;28;20031;-74
2023/11/16 04:02:58;;;;;;;8.07;1.55;;;8.10;73.80;;;;;;4975649;28;20494;-74
2023/11/16 04:05:23;;;;;;;7.32;1.42;;;8.20;73.50;;;;;;4975521;28;20027;-74
2023/11/16 04:07:49;;;;;;;9.30;1.63;;;8.10;73.80;;;;;;4975349;28;20030;-74
2023/11/16 04:10:15;;;;;;;8.07;1.45;;;8.10;74.00;;;;;;4990199;28;20077;-73
2023/11/16 04:12:41;;;;;;;6.35;1.33;;;8.00;73.70;;;;;;4975448;28;20041;-75
2023/11/16 04:15:13;;;;;;;7.28;1.70;;;8.10;73.70;;;;;;4975286;28;20029;-75
2023/11/16 04:17:39;;;;;;;4.97;1.10;;;8.10;73.70;;;;;;4975323;28;20019;-74
2023/11/16 04:20:07;;;;;;;9.00;1.55;;;8.10;73.80;;;;;;4975236;28;20022;-74
2023/11/16 04:22:38;;;;;;;7.07;1.48;;;8.00;73.80;;;;;;4975138;28;20022;-74
2023/11/16 04:25:07;;;;;;;7.80;1.65;;;8.00;74.10;;;;;;4975267;28;20027;-74
2023/11/16 04:27:33;;;;;;;14.75;1.58;;;8.10;74.20;;;;;;4975168;28;20110;-74
2023/11/16 04:29:59;;;;;;;5.93;1.52;;;8.00;74.30;;;;;;4974938;28;20101;-74
2023/11/16 04:32:26;;;;;;;6.20;1.27;;;8.00;74.60;;;;;;4974997;28;20118;-75
2023/11/16 04:34:52;;;;;;;5.38;1.65;;;8.00;74.40;;;;;;4975062;28;20022;-75
2023/11/16 04:37:19;;;;;;;6.07;1.63;;;8.00;74.60;;;;;;4974915;28;20102;-75
2023/11/16 04:39:45;;;;;;;4.95;1.55;;;8.00;74.40;;;;;;4975153;28;20057;-75
2023/11/16 04:42:11;;;;;;;6.00;1.40;;;8.10;74.50;;;;;;4973548;28;20022;-75
2023/11/16 04:44:38;;;;;;;8.23;1.67;;;8.10;74.60;;;;;;4974806;28;20023;-75
2023/11/16 04:47:05;;;;;;;3.53;1.15;;;8.20;74.60;;;;;;4974737;28;20057;-75
2023/11/16 04:49:30;;;;;;;3.35;1.23;;;8.10;74.80;;;;;;4974503;28;20058;-75
2023/11/16 04:51:57;;;;;;;4.10;1.52;;;8.20;75.10;;;;;;4974405;28;20071;-75
2023/11/16 04:54:22;;;;;;;6.70;2.00;;;8.20;75.10;;;;;;4974371;28;20027;-75
2023/11/16 04:56:48;;;;;;;7.82;2.55;;;8.20;75.10;;;;;;4973985;28;20369;-75
2023/11/16 04:59:14;;;;;;;5.05;2.15;;;8.20;75.00;;;;;;4974414;28;20489;-74
2023/11/16 05:01:39;;;;;;;9.02;2.67;;;8.20;75.10;;;;;;4974452;28;20030;-76
2023/11/16 05:04:05;;;;;;;8.20;2.22;;;8.30;75.20;;;;;;4974376;28;20078;-75
2023/11/16 05:06:31;;;;;;;4.63;2.00;;;8.20;75.10;;;;;;4974477;28;20215;-75
2023/11/16 05:08:57;;;;;;;6.90;2.03;;;8.20;75.10;;;;;;4974437;28;20182;-74
2023/11/16 05:11:23;;;;;;;6.10;1.92;;;8.20;75.00;;;;;;4972843;28;20135;-74
2023/11/16 05:13:53;;;;;;;5.72;1.70;;;8.20;75.00;;;;;;4974421;28;20027;-75
2023/11/16 05:16:20;;;;;;;7.60;1.70;;;8.20;75.00;;;;;;4974320;28;20023;-74
2023/11/16 05:18:45;;;;;;;5.40;2.05;;;8.20;74.80;;;;;;4974265;28;20027;-75
2023/11/16 05:21:13;;;;;;;5.82;1.67;;;8.10;75.00;;;;;;4974160;28;20019;-74
2023/11/16 05:23:38;;;;;;;3.95;1.42;;;8.10;75.30;;;;;;4974224;28;20114;-76
2023/11/16 05:26:07;;;;;;;4.45;1.15;;;8.10;74.40;;;;;;4974108;28;20101;-75
2023/11/16 05:28:33;;;;;;;10.02;2.03;;;8.10;74.30;;;;;;4974173;28;20022;-75
2023/11/16 05:30:58;;;;;;;4.90;1.20;;;8.20;74.50;;;;;;4974576;28;20560;-75
2023/11/16 05:33:24;;;;;;;2.90;1.13;;;8.20;74.70;;;;;;4977319;28;20182;-75
2023/11/16 05:35:51;;;;;;;6.38;1.58;;;8.20;74.90;;;;;;4993599;28;20062;-75
2023/11/16 05:38:17;;;;;;;6.18;1.25;;;8.10;75.00;;;;;;4993524;28;20102;-74
2023/11/16 05:40:44;;;;;;;7.18;1.45;;;8.10;75.10;;;;;;4993609;28;20022;-75
2023/11/16 05:43:10;;;;;;;4.07;1.40;;;8.10;75.30;;;;;;4993435;28;20023;-75
2023/11/16 05:45:39;;;;;;;5.95;1.70;;;8.10;75.40;;;;;;4993423;28;20058;-74
2023/11/16 05:48:07;;;;;;;4.20;1.40;;;8.10;75.50;;;;;;4993332;28;20359;-73
2023/11/16 05:50:34;;;;;;;8.43;1.55;;;8.10;75.40;;;;;;4993120;28;20104;-75
2023/11/16 05:52:59;;;;;;;4.22;1.38;;;8.20;75.30;;;;;;4993225;28;20035;-75
2023/11/16 05:55:26;;;;;;;7.72;1.75;;;8.10;75.30;;;;;;4993357;28;20041;-75
2023/11/16 05:57:52;;;;;;;4.22;1.23;;;8.10;75.20;;;;;;4991809;28;20061;-75
2023/11/16 06:00:19;;;;;;;3.75;1.30;;;8.10;75.10;;;;;;4993288;28;20037;-75
2023/11/16 06:02:45;;;;;;;5.07;1.50;;;8.10;75.20;;;;;;4997771;28;20114;-75
2023/11/16 06:05:11;;;;;;;5.80;1.30;;;8.10;74.80;;;;;;4993279;28;20063;-75
2023/11/16 06:07:37;;;;;;;5.45;1.50;;;8.20;74.90;;;;;;4993419;28;20109;-75
2023/11/16 06:10:05;;;;;;;4.40;1.27;;;8.20;74.70;;;;;;4995519;28;20030;-75
2023/11/16 06:12:31;;;;;;;7.50;1.85;;;8.20;74.80;;;;;;4996751;28;20033;-74
2023/11/16 06:14:56;;;;;;;5.57;1.63;;;8.20;75.60;;;;;;4995544;28;20023;-75
2023/11/16 06:17:22;;;;;;;6.35;1.80;;;8.10;74.90;;;;;;4996919;28;20030;-76
2023/11/16 06:19:48;;;;;;;6.15;2.40;;;8.00;75.10;;;;;;4997233;28;20027;-75
2023/11/16 06:22:14;;;;;;;6.97;2.05;;;8.00;75.30;;;;;;4996914;28;20081;-76
2023/11/16 06:24:40;;;;;;;6.03;1.73;;;8.00;75.40;;;;;;4996965;28;20022;-76
2023/11/16 06:27:05;;;;;;;6.60;1.95;;;8.10;75.60;;;;;;4996808;28;20034;-75
2023/11/16 06:29:31;;;;;;;9.25;1.90;;;8.00;75.60;;;;;;4996774;28;20022;-75
2023/11/16 06:31:56;;;;;;;6.63;2.13;;;8.00;75.60;;;;;;4996945;28;20022;-75
2023/11/16 06:34:22;;;;;;;6.72;2.15;;;8.00;75.60;;;;;;4996509;28;20030;-76
2023/11/16 06:36:49;;;;;;;5.00;2.03;;;8.00;75.80;;;;;;4996513;28;20101;-75
2023/11/16 06:39:14;;;;;;;4.30;1.50;;;8.00;76.10;;;;;;4996508;28;20097;-75
2023/11/16 06:41:41;;;;;;;6.00;1.80;;;8.00;76.10;;;;;;4996404;28;20022;-76
2023/11/16 06:44:07;;;;;;;6.07;1.85;;;8.00;75.80;;;;;;4995534;28;20038;-75
2023/11/16 06:46:34;;;;;;;6.68;1.30;;;8.00;75.60;;;;;;4996619;28;20395;-76
2023/11/16 06:49:02;;;;;;;9.15;1.50;;;8.00;74.10;;;;;;4996466;28;20104;-74
2023/11/16 06:51:28;;;;;;;12.45;1.52;;;8.10;73.20;;;;;;4996114;28;20052;-76
2023/11/16 06:53:54;;;;;;;7.22;1.88;;;8.20;73.20;;;;;;4996303;28;20034;-76
2023/11/16 06:56:20;;;;;;;5.68;1.52;;;8.20;72.70;;;;;;4994964;28;20375;-77
2023/11/16 06:58:46;;;;;;;3.38;1.15;;;8.30;73.20;;;;;;4996190;28;20026;-76
2023/11/16 07:01:11;;;;;;;3.85;1.20;;;8.30;73.20;;;;;;4996102;28;20022;-76
2023/11/16 07:03:37;;;;;;;3.45;1.13;;;8.40;73.10;;;;;;4996063;28;20034;-77
2023/11/16 07:06:04;;;;;;;9.90;2.30;;;8.40;73.00;;;;;;4995967;28;20387;-77
2023/11/16 07:08:30;;;;;;;7.60;2.30;;;8.50;72.60;;;;;;4995636;28;20506;-75
2023/11/16 07:10:56;;;;;;;11.13;3.33;;;8.40;72.30;;;;;;4995793;28;20219;-76
2023/11/16 07:13:23;;;;;;;9.38;3.78;;;8.30;72.90;;;;;;4995902;28;20022;-76
2023/11/16 07:15:49;;;;;;;11.27;3.50;;;8.30;73.30;;;;;;4995801;28;20056;-76
2023/11/16 07:18:21;;;;;;;12.20;4.05;;;8.30;73.60;;;;;;4995708;28;20475;-76
2023/11/16 07:20:47;;;;;;;9.90;3.80;;;8.30;73.90;;;;;;4995494;28;20027;-77
2023/11/16 07:23:14;;;;;;;7.45;3.47;;;8.30;73.90;;;;;;4995871;28;20022;-76
2023/11/16 07:25:40;;;;;;;10.40;3.50;;;8.20;74.00;;;;;;4998784;28;20042;-76
2023/11/16 07:28:05;;;;;;;8.90;3.63;;;8.20;74.10;;;;;;4995987;28;20497;-76
2023/11/16 07:30:32;;;;;;;7.72;3.13;;;8.30;74.30;;;;;;4995645;28;20142;-76
2023/11/16 07:32:59;;;;;;;9.40;2.92;;;8.30;74.60;;;;;;4995444;28;20438;-75
2023/11/16 07:35:25;;;;;;;7.53;2.75;;;8.30;74.50;;;;;;4995173;28;20026;-76
2023/11/16 07:37:51;;;;;;;7.65;2.45;;;8.40;74.50;;;;;;5002101;28;20060;-75
2023/11/16 07:40:18;;;;;;;6.07;2.40;;;8.40;74.60;;;;;;4995782;28;20018;-74
2023/11/16 07:42:44;;;;;;;4.47;1.92;;;8.40;74.50;;;;;;4995562;28;20026;-73
2023/11/16 07:45:15;;;;;;;6.22;2.08;;;8.40;74.20;;;;;;4995278;28;20070;-79
2023/11/16 07:47:42;;;;;;;6.70;1.90;;;8.40;74.10;;;;;;4995184;28;20128;-77
2023/11/16 07:50:11;;;;;;;5.20;2.00;;;8.40;74.00;;;;;;4994720;28;20149;-74
2023/11/16 07:52:43;;;;;;;6.28;2.28;;;8.50;74.00;;;;;;4995219;28;20027;-77
2023/11/16 07:55:21;;;;;;;3.47;1.20;;;8.60;73.40;;;;;;4994809;28;20029;-75
2023/11/16 07:57:49;;;;;;;6.05;1.83;;;8.70;72.80;;;;;;5010636;28;20037;-76
2023/11/16 08:00:30;;;;;;;9.05;2.53;;;8.80;72.30;;;;;;4995685;28;20491;-77
2023/11/16 08:05:44;;;;;;;6.63;1.92;;;9.00;73.30;;;;;;4994894;28;20080;-75
2023/11/16 08:08:13;;;;;;;6.93;1.80;;;9.10;72.00;;;;;;4993540;28;20030;-75
2023/11/16 08:10:43;;;;;;;6.50;1.95;;;9.10;71.40;;;;;;4994753;28;20041;-74
2023/11/16 08:13:10;;;;;;;6.15;1.98;;;9.20;71.10;;;;;;4996177;28;20427;-74
2023/11/16 08:15:40;;;;;;;9.43;2.33;;;9.30;70.70;;;;;;4996808;28;20054;-75
2023/11/16 08:18:08;;;;;;;6.70;2.00;;;9.20;69.90;;;;;;4994910;28;20414;-74
2023/11/16 08:20:34;;;;;;;8.63;2.47;;;9.20;70.10;;;;;;4995132;28;20034;-76
2023/11/16 08:22:59;;;;;;;6.05;1.73;;;9.30;69.50;;;;;;4994742;28;20019;-77
2023/11/16 08:25:28;;;;;;;7.38;1.83;;;9.10;70.30;;;;;;4994591;28;20037;-77
2023/11/16 08:27:55;;;;;;;6.30;1.60;;;9.10;69.70;;;;;;4994470;28;20038;-75
2023/11/16 08:30:24;;;;;;;9.57;2.42;;;9.00;70.20;;;;;;4993672;28;20051;-77
2023/11/16 08:32:50;;;;;;;16.98;2.83;;;9.00;70.30;;;;;;4994662;28;20047;-81
2023/11/16 08:35:18;;;;;;;8.90;2.20;;;9.30;82.70;;;;;;4994708;28;20014;-78
2023/11/16 08:37:44;;;;;;;8.07;2.08;;;9.60;82.20;;;;;;4994877;28;20117;-81
2023/11/16 08:40:12;;;;;;;8.18;2.17;;;9.70;77.20;;;;;;4994349;28;20046;-75
2023/11/16 08:42:42;;;;;;;6.03;1.95;;;9.80;75.30;;;;;;4994255;28;20050;-77
2023/11/16 08:45:18;;;;;;;6.35;1.92;;;10.00;77.70;;;;;;4994186;28;20455;-79
2023/11/16 08:47:48;;;;;;;5.90;2.05;;;10.30;75.00;;;;;;4994122;28;20029;-74
2023/11/16 08:50:16;;;;;;;5.93;2.00;;;10.40;68.50;;;;;;4995387;28;20055;-74
2023/11/16 08:52:47;;;;;;;8.10;2.20;;;10.30;66.20;;;;;;4994470;28;20379;-74
2023/11/16 08:55:13;;;;;;;7.35;2.05;;;10.10;66.10;;;;;;4993993;28;20026;-74
2023/11/16 08:57:42;;;;;;;5.03;1.38;;;9.90;66.70;;;;;;4994043;28;20022;-73
2023/11/16 09:03:09;;;;;;;6.85;1.58;;;9.30;68.40;;;;;;4994014;28;20382;-73
2023/11/16 09:05:39;;;;;;;5.55;1.88;;;9.10;70.00;;;;;;4992342;28;20531;-73
2023/11/16 09:08:09;;;;;;;8.30;2.30;;;8.80;70.60;;;;;;4993903;28;20117;-74
2023/11/16 09:10:36;;;;;;;10.77;2.33;;;8.70;71.20;;;;;;4993789;28;20513;-74
2023/11/16 09:13:03;;;;;;;5.63;1.40;;;8.70;72.30;;;;;;4993612;28;20041;-74
2023/11/16 09:15:29;;;;;;;8.63;1.60;;;8.70;71.80;;;;;;4993770;28;20046;-75
2023/11/16 09:17:58;;;;;;;8.52;2.22;;;8.70;71.80;;;;;;4993812;28;20025;-75
2023/11/16 09:20:29;;;;;;;7.82;1.58;;;8.70;71.90;;;;;;4993681;28;20087;-75
2023/11/16 09:22:57;;;;;;;8.20;2.08;;;8.70;69.60;;;;;;4993574;28;20014;-75
2023/11/16 09:25:25;;;;;;;5.43;1.70;;;8.70;69.90;;;;;;4993574;28;20018;-75
2023/11/16 09:27:54;;;;;;;7.80;1.75;;;8.80;70.20;;;;;;4993454;28;20109;-75
2023/11/16 09:30:26;;;;;;;6.47;1.95;;;8.80;70.00;;;;;;4993406;28;20041;-75
2023/11/16 09:32:54;;;;;;;10.13;1.63;;;8.80;70.20;;;;;;4993487;28;20045;-74
2023/11/16 09:35:21;;;;;;;7.90;2.08;;;8.80;69.80;;;;;;4993410;28;20022;-76
2023/11/16 09:37:58;;;;;;;8.68;1.85;;;8.90;70.10;;;;;;4993289;28;20101;-76
2023/11/16 09:40:28;;;;;;;5.00;1.90;;;9.00;70.00;;;;;;4993568;28;20022;-76
2023/11/16 09:42:58;;;;;;;9.23;2.28;;;9.00;70.00;;;;;;4997055;28;20490;-76
2023/11/16 09:45:27;;;;;;;9.73;1.77;;;9.00;69.40;;;;;;4999591;28;20026;-77
2023/11/16 09:48:06;;;;;;;9.00;2.08;;;9.00;69.30;;;;;;4999794;28;20052;-76
2023/11/16 09:50:33;;;;;;;15.40;2.40;;;9.00;70.00;;;;;;4999147;28;20403;-77
2023/11/16 09:53:00;;;;;;;6.07;1.92;;;9.00;70.50;;;;;;4999559;28;20022;-77
2023/11/16 09:55:32;;;;;;;9.15;1.70;;;9.00;70.30;;;;;;4999745;28;20026;-77
2023/11/16 09:58:11;;;;;;;9.13;2.13;;;9.00;70.20;;;;;;4999754;28;20053;-76
2023/11/16 10:00:39;;;;;;;10.52;2.13;;;9.00;70.10;;;;;;4999674;28;20026;-74
2023/11/16 10:03:05;;;;;;;6.07;1.83;;;9.00;70.30;;;;;;4998242;28;20022;-74
2023/11/16 10:05:40;;;;;;;6.90;1.85;;;9.00;70.40;;;;;;4999558;28;20022;-74
2023/11/16 10:08:09;;;;;;;5.90;1.60;;;9.10;70.40;;;;;;5003404;28;20467;-76
2023/11/16 10:10:35;;;;;;;7.70;1.90;;;9.10;70.00;;;;;;4999663;28;20046;-76
2023/11/16 10:13:03;;;;;;;6.65;1.85;;;9.20;69.50;;;;;;4999431;28;20026;-74
2023/11/16 10:15:30;;;;;;;6.57;1.60;;;9.20;69.40;;;;;;4999594;28;20384;-75
2023/11/16 10:17:56;;;;;;;8.70;2.40;;;9.20;70.30;;;;;;4998132;28;20146;-77
2023/11/16 10:20:23;;;;;;;5.57;1.50;;;9.20;69.80;;;;;;4999531;28;20062;-75
2023/11/16 10:22:51;;;;;;;5.97;1.95;;;9.20;70.30;;;;;;4999570;28;20041;-77
2023/11/16 10:25:17;;;;;;;6.30;1.92;;;9.40;70.10;;;;;;4999506;28;20553;-75
2023/11/16 10:27:44;;;;;;;9.88;1.92;;;9.40;69.80;;;;;;4999300;28;20026;-76
2023/11/16 10:30:15;;;;;;;9.00;2.30;;;9.50;69.70;;;;;;4999321;28;20030;-76
2023/11/16 10:32:47;;;;;;;8.00;2.10;;;9.60;69.50;;;;;;4999358;28;20057;-76
2023/11/16 10:35:14;;;;;;;5.72;1.63;;;9.70;69.00;;;;;;4999219;28;20486;-75
2023/11/16 10:37:44;;;;;;;12.20;2.20;;;9.70;67.10;;;;;;4999227;28;20475;-75
2023/11/16 10:40:11;;;;;;;5.93;1.60;;;9.70;67.00;;;;;;4999358;28;20112;-76
2023/11/16 10:42:43;;;;;;;4.82;1.67;;;9.70;67.80;;;;;;4999397;28;20522;-76
2023/11/16 10:45:13;;;;;;;5.43;1.50;;;9.80;68.00;;;;;;4999357;28;20034;-76
2023/11/16 10:47:43;;;;;;;7.95;2.30;;;9.90;68.20;;;;;;4999475;28;20037;-75
2023/11/16 10:50:17;;;;;;;9.27;2.22;;;9.70;66.30;;;;;;4998636;28;20046;-74
2023/11/16 10:52:45;;;;;;;7.43;1.70;;;9.50;68.10;;;;;;5000500;28;20037;-77
2023/11/16 10:55:21;;;;;;;6.53;1.48;;;9.60;68.10;;;;;;4995959;28;20030;-76
2023/11/16 10:57:51;;;;;;;7.38;1.98;;;9.60;67.30;;;;;;5001872;28;20061;-77
2023/11/16 11:00:19;;;;;;;6.35;1.48;;;9.70;67.50;;;;;;4997486;28;20022;-76
2023/11/16 11:02:47;;;;;;;4.35;1.38;;;9.60;66.30;;;;;;4995989;28;20085;-76
2023/11/16 11:05:16;;;;;;;10.55;2.13;;;9.40;66.40;;;;;;4995943;28;20045;-76
2023/11/16 11:07:55;;;;;;;9.27;1.70;;;9.40;66.60;;;;;;4996701;28;20026;-75
2023/11/16 11:10:27;;;;;;;9.23;1.60;;;9.30;66.40;;;;;;4995726;28;20041;-76
2023/11/16 11:12:56;;;;;;;15.40;2.03;;;9.30;67.00;;;;;;4995678;28;20141;-76
2023/11/16 11:15:31;;;;;;;9.15;2.05;;;9.20;67.70;;;;;;4995611;28;20030;-75
2023/11/16 11:18:00;;;;;;;9.20;1.75;;;9.20;67.10;;;;;;4995750;28;20391;-76
2023/11/16 11:20:43;;;;;;;8.25;2.03;;;9.10;67.30;;;;;;4995596;28;20026;-75
2023/11/16 11:23:16;;;;;;;10.50;1.83;;;9.00;66.70;;;;;;4995647;28;20015;-75
2023/11/16 11:25:42;;;;;;;7.25;1.80;;;8.90;67.20;;;;;;4995873;28;20033;-75
2023/11/16 11:28:13;;;;;;;9.45;2.25;;;8.90;68.20;;;;;;4995563;28;20426;-76
2023/11/16 11:30:54;;;;;;;12.75;2.22;;;8.90;68.10;;;;;;5000300;28;20077;-76
2023/11/16 11:33:35;;;;;;;7.53;1.88;;;8.70;67.80;;;;;;4995437;28;20026;-76
2023/11/16 11:36:09;;;;;;;7.40;3.38;;;8.70;67.70;;;;;;4995260;28;20026;-75
2023/11/16 11:38:38;;;;;;;9.52;2.05;;;8.70;68.00;;;;;;4994577;28;20471;-75
2023/11/16 11:41:12;;;;;;;4.18;1.40;;;8.80;67.30;;;;;;4994676;28;20042;-75
2023/11/16 11:43:39;;;;;;;3.47;1.30;;;8.90;66.80;;;;;;4995158;28;20102;-76
2023/11/16 11:46:11;;;;;;;9.15;1.88;;;9.10;67.50;;;;;;4995329;28;20035;-75
2023/11/16 11:48:40;;;;;;;4.50;1.30;;;9.30;67.00;;;;;;4995074;28;20026;-76
2023/11/16 11:51:10;;;;;;;7.68;3.17;;;9.40;66.00;;;;;;4995437;28;20047;-76
2023/11/16 11:53:37;;;;;;;6.85;2.05;;;9.50;65.30;;;;;;4999281;28;20445;-75
2023/11/16 11:56:06;;;;;;;3.63;1.35;;;9.60;64.60;;;;;;4994835;28;20112;-75
2023/11/16 11:58:35;;;;;;;6.15;1.50;;;9.60;63.20;;;;;;4994934;28;20022;-75
2023/11/16 12:01:02;;;;;;;4.53;1.20;;;9.70;63.40;;;;;;4994760;28;20150;-76
2023/11/16 12:03:28;;;;;;;6.72;1.38;;;9.50;63.30;;;;;;4994512;28;20015;-75
2023/11/16 12:06:00;;;;;;;7.32;1.48;;;9.50;63.30;;;;;;4993411;28;20620;-76
2023/11/16 12:08:40;;;;;;;5.00;1.70;;;9.30;64.30;;;;;;4994503;28;20080;-76
2023/11/16 12:11:06;;;;;;;3.50;1.33;;;9.20;65.50;;;;;;4994767;28;20432;-75
2023/11/16 12:13:34;;;;;;;7.30;1.30;;;9.20;65.50;;;;;;4994490;28;20041;-76
2023/11/16 12:16:00;;;;;;;6.03;1.10;;;9.10;65.10;;;;;;4993276;28;20026;-76
2023/11/16 12:18:26;;;;;;;3.67;1.15;;;9.10;65.20;;;;;;4994087;28;20023;-76
2023/11/16 12:20:53;;;;;;;5.20;1.13;;;9.20;65.70;;;;;;4994207;28;20027;-75
2023/11/16 12:23:19;;;;;;;2.92;1.10;;;9.20;65.60;;;;;;4993900;28;20041;-77
2023/11/16 12:25:45;;;;;;;5.72;1.70;;;9.20;65.00;;;;;;4994247;28;20031;-77
2023/11/16 12:28:11;;;;;;;3.30;1.35;;;9.30;65.80;;;;;;4994368;28;20019;-76
2023/11/16 12:30:38;;;;;;;4.10;1.85;;;9.20;66.50;;;;;;4994854;28;20045;-76
2023/11/16 12:33:08;;;;;;;5.05;1.42;;;9.20;67.50;;;;;;4994683;28;20059;-77
2023/11/16 12:35:38;;;;;;;3.78;1.23;;;9.10;67.90;;;;;;4994406;28;20125;-75
2023/11/16 12:38:04;;;;;;;3.13;1.08;;;9.10;68.90;;;;;;4993966;28;20424;-75
2023/11/16 12:40:30;;;;;;;2.38;1.15;;;9.10;69.20;;;;;;4994357;28;20109;-74
2023/11/16 12:42:55;;;;;;;3.83;1.23;;;9.10;70.10;;;;;;4993252;28;20120;-76
2023/11/16 12:45:22;;;;;;;4.32;2.25;;;9.10;70.80;;;;;;4994133;28;20104;-76
2023/11/16 12:47:48;;;;;;;5.30;2.08;;;9.20;71.20;;;;;;4994225;28;20046;-76
2023/11/16 12:50:14;;;;;;;4.75;2.35;;;9.20;70.80;;;;;;4994045;28;20639;-75
2023/11/16 12:52:39;;;;;;;4.78;2.60;;;9.20;70.90;;;;;;4998259;28;20022;-75
2023/11/16 12:55:10;;;;;;;6.32;3.60;;;9.30;71.50;;;;;;4994109;28;20035;-75
2023/11/16 12:57:40;;;;;;;11.18;3.35;;;9.30;72.20;;;;;;4994127;28;20023;-75
2023/11/16 13:00:10;;;;;;;5.63;2.58;;;9.30;72.40;;;;;;4994308;28;20072;-74
2023/11/16 13:02:36;;;;;;;6.30;2.72;;;9.30;73.10;;;;;;4992597;28;20125;-75
2023/11/16 13:05:05;;;;;;;3.75;2.05;;;9.30;75.10;;;;;;4993867;28;20087;-74